createdAt,value
2018-01-03T09:14:29.424Z,97972.96
2018-01-03T10:20:16.770Z,98107.80
2018-01-03T10:22:44.747Z,98109.00
2018-01-03T10:25:12.852Z,98106.78
2018-01-03T10:27:40.112Z,98112.45
2018-01-03T10:30:08.503Z,98108.59
2018-01-03T10:32:35.942Z,98111.46
2018-01-03T10:35:03.432Z,98120.59
2018-01-03T10:37:30.516Z,98103.02
2018-01-03T10:39:58.020Z,98101.88
2018-01-03T10:42:25.274Z,98099.19
2018-01-03T10:44:52.377Z,98100.64
2018-01-03T10:47:19.466Z,98103.50
2018-01-03T10:49:46.858Z,98101.59
2018-01-03T10:52:14.162Z,98095.78
2018-01-03T10:54:42.068Z,98109.47
2018-01-03T10:57:09.099Z,98116.03
2018-01-03T10:59:36.118Z,98119.80
2018-01-03T11:02:03.247Z,98114.06
2018-01-03T11:04:30.248Z,98111.61
2018-01-03T11:06:57.216Z,98124.53
2018-01-03T11:09:24.094Z,98122.59
2018-01-03T11:11:52.060Z,98124.06
2018-01-03T11:14:20.828Z,98139.05
2018-01-03T11:16:49.537Z,98138.07
2018-01-03T11:19:16.439Z,98158.34
2018-01-03T11:21:43.270Z,98140.47
2018-01-03T11:24:10.086Z,98170.80
2018-01-03T11:26:37.699Z,98157.71
2018-01-03T11:29:05.482Z,98171.91
2018-01-03T11:31:32.314Z,98175.11
2018-01-03T11:33:59.724Z,98184.00
2018-01-03T11:36:26.544Z,98201.91
2018-01-03T11:38:54.715Z,98206.39
2018-01-03T11:41:24.111Z,98193.55
2018-01-03T11:43:50.987Z,98211.55
2018-01-03T11:46:17.853Z,98199.71
2018-01-03T11:48:46.891Z,98207.91
2018-01-03T11:51:13.742Z,98203.59
2018-01-03T11:53:40.631Z,98196.42
2018-01-03T11:56:07.521Z,98224.04
2018-01-03T11:58:34.400Z,98212.45
2018-01-03T12:01:01.284Z,98223.41
2018-01-03T12:03:28.203Z,98236.19
2018-01-03T12:05:55.091Z,98214.94
2018-01-03T12:08:21.950Z,98241.75
2018-01-03T12:10:49.485Z,98238.34
2018-01-03T12:13:16.331Z,98238.78
2018-01-03T12:15:43.188Z,98233.53
2018-01-03T12:18:10.076Z,98254.63
2018-01-03T12:20:36.992Z,98259.23
2018-01-03T12:23:03.908Z,98254.45
2018-01-03T12:25:34.731Z,98261.86
2018-01-03T12:28:05.393Z,98268.30
2018-01-03T12:30:32.946Z,98284.61
2018-01-03T12:32:59.852Z,98282.70
2018-01-03T12:35:26.691Z,98299.46
2018-01-03T12:37:53.530Z,98289.09
2018-01-03T12:40:20.368Z,98290.28
2018-01-03T12:42:47.902Z,98311.50
2018-01-03T12:45:15.761Z,98312.64
2018-01-03T12:47:42.587Z,98323.32
2018-01-03T12:50:10.152Z,98306.92
2018-01-03T12:52:37.531Z,98316.20
2018-01-03T12:55:04.433Z,98316.89
2018-01-03T12:57:32.211Z,98335.20
2018-01-03T12:59:59.102Z,98316.62
2018-01-03T13:02:26.768Z,98318.02
2018-01-03T13:04:54.640Z,98338.13
2018-01-03T13:07:21.476Z,98334.61
2018-01-03T13:09:48.952Z,98341.99
2018-01-03T13:12:15.783Z,98341.47
2018-01-03T13:14:42.621Z,98340.98
2018-01-03T13:17:09.476Z,98344.31
2018-01-03T13:19:36.344Z,98348.11
2018-01-03T13:22:03.200Z,98350.55
2018-01-03T13:24:30.021Z,98362.39
2018-01-03T13:27:00.250Z,98370.50
2018-01-03T13:29:27.096Z,98382.69
2018-01-03T13:31:53.931Z,98391.72
2018-01-03T13:34:20.737Z,98389.98
2018-01-03T13:36:47.549Z,98397.52
2018-01-03T13:39:15.143Z,98405.02
2018-01-03T13:41:41.987Z,98416.36
2018-01-03T13:44:08.819Z,98418.58
2018-01-03T13:46:37.424Z,98424.13
2018-01-03T13:49:05.260Z,98432.55
2018-01-03T13:51:32.072Z,98423.63
2018-01-03T13:54:00.562Z,98429.20
2018-01-03T13:56:28.142Z,98440.13
2018-01-03T13:58:55.905Z,98448.22
2018-01-03T14:01:22.705Z,98467.30
2018-01-03T14:03:49.684Z,98432.28
2018-01-03T14:06:16.566Z,98464.39
2018-01-03T14:08:43.433Z,98453.58
2018-01-03T14:11:10.315Z,98451.00
2018-01-03T14:13:37.907Z,98460.55
2018-01-03T14:16:04.925Z,98468.91
2018-01-03T14:18:32.505Z,98473.27
2018-01-03T14:21:00.167Z,98468.63
2018-01-03T14:23:26.959Z,98478.83
2018-01-03T14:25:53.896Z,98491.12
2018-01-03T14:28:20.731Z,98492.01
2018-01-03T14:30:47.554Z,98502.51
2018-01-03T14:33:14.407Z,98518.81
2018-01-03T14:35:41.617Z,98518.23
2018-01-03T14:38:08.551Z,98526.12
2018-01-03T14:40:35.409Z,98525.73
2018-01-03T14:43:02.343Z,98533.52
2018-01-03T14:45:29.968Z,98532.80
2018-01-03T14:47:56.946Z,98525.52
2018-01-03T14:50:24.575Z,98511.54
2018-01-03T14:52:51.407Z,98524.47
2018-01-03T14:55:19.659Z,98532.70
2018-01-03T14:57:47.024Z,98543.88
2018-01-03T15:00:14.030Z,98535.04
2018-01-03T15:02:41.681Z,98572.06
2018-01-03T15:05:09.271Z,98564.33
2018-01-03T15:07:36.559Z,98570.45
2018-01-03T15:10:03.471Z,98579.41
2018-01-03T15:12:31.128Z,98577.30
2018-01-03T15:14:58.008Z,98581.29
2018-01-03T15:17:24.851Z,98580.56
2018-01-03T15:19:52.133Z,98586.22
2018-01-03T15:22:18.971Z,98581.78
2018-01-03T15:27:18.335Z,98618.63
2018-01-03T15:29:45.177Z,98600.45
2018-01-03T15:32:12.043Z,98598.25
2018-01-03T15:34:40.281Z,98613.08
2018-01-03T15:37:08.403Z,98617.47
2018-01-03T15:39:35.298Z,98611.48
2018-01-03T15:42:02.100Z,98630.42
2018-01-03T15:44:28.951Z,98619.83
2018-01-03T15:46:56.574Z,98633.12
2018-01-03T15:49:23.424Z,98640.08
2018-01-03T15:51:51.445Z,98649.44
2018-01-03T15:54:18.323Z,98642.97
2018-01-03T15:56:45.150Z,98647.34
2018-01-03T15:59:11.991Z,98656.53
2018-01-03T16:01:38.813Z,98658.73
2018-01-03T16:04:05.651Z,98665.19
2018-01-03T16:06:32.743Z,98667.66
2018-01-03T16:09:00.312Z,98668.89
2018-01-03T16:11:27.751Z,98664.77
2018-01-03T16:16:54.876Z,98685.20
2018-01-03T16:19:22.158Z,98687.86
2018-01-03T16:21:50.255Z,98687.66
2018-01-03T16:24:17.181Z,98694.88
2018-01-03T16:26:47.378Z,98699.41
2018-01-03T16:32:01.911Z,98710.38
2018-01-03T16:34:48.005Z,98718.03
2018-01-03T16:40:06.457Z,98717.18
2018-01-03T16:48:00.310Z,98706.59
2018-01-03T16:50:35.224Z,98708.80
2018-01-03T16:53:02.318Z,98711.54
2018-01-03T16:55:29.888Z,98715.63
2018-01-03T16:57:58.388Z,98724.29
2018-01-03T17:00:25.505Z,98718.45
2018-01-03T17:02:56.399Z,98734.80
2018-01-03T17:05:23.544Z,98715.13
2018-01-03T17:07:50.571Z,98722.24
2018-01-03T17:10:17.703Z,98726.41
2018-01-03T17:12:52.916Z,98718.80
2018-01-03T17:15:32.021Z,98720.73
2018-01-03T17:18:00.582Z,98714.28
2018-01-03T17:20:27.989Z,98714.36
2018-01-03T17:22:54.940Z,98720.19
2018-01-03T17:25:21.790Z,98723.94
2018-01-03T17:27:49.121Z,98723.94
2018-01-03T17:30:16.423Z,98724.31
2018-01-03T17:32:43.270Z,98741.20
2018-01-03T17:35:15.822Z,98741.64
2018-01-03T17:37:42.819Z,98742.67
2018-01-03T17:40:10.232Z,98738.74
2018-01-03T17:42:43.716Z,98757.44
2018-01-03T17:45:11.837Z,98742.83
2018-01-03T17:47:38.905Z,98756.82
2018-01-03T18:17:56.937Z,98797.23
2018-01-03T18:20:25.175Z,98797.23
2018-01-03T18:22:55.086Z,98800.30
2018-01-03T18:25:22.515Z,98805.81
2018-01-03T18:27:50.866Z,98797.20
2018-01-03T18:30:17.935Z,98794.61
2018-01-03T18:32:46.657Z,98818.69
2018-01-03T18:35:15.429Z,98810.69
2018-01-03T18:37:44.012Z,98827.09
2018-01-03T18:40:13.606Z,98827.52
2018-01-03T18:42:42.219Z,98815.42
2018-01-03T18:45:10.736Z,98826.83
2018-01-03T18:47:43.856Z,98842.30
2018-01-03T19:11:13.050Z,98848.98
2018-01-03T19:13:42.259Z,98858.95
2018-01-03T19:16:11.378Z,98865.36
2018-01-03T19:18:40.625Z,98868.02
2018-01-03T19:21:09.686Z,98862.67
2018-01-03T19:23:38.914Z,98866.37
2018-01-03T19:26:08.971Z,98873.06
2018-01-03T19:28:37.910Z,98878.38
2018-01-03T19:31:06.934Z,98871.44
2018-01-03T19:33:36.740Z,98871.55
2018-01-03T19:36:06.569Z,98880.16
2018-01-03T19:38:36.571Z,98877.41
2018-01-03T19:41:05.569Z,98876.91
2018-01-03T19:43:36.065Z,98884.17
2018-01-03T19:46:05.309Z,98879.15
2018-01-03T19:48:34.250Z,98887.87
2018-01-03T19:51:04.266Z,98877.17
2018-01-03T19:53:33.579Z,98884.61
2018-01-03T19:56:03.578Z,98887.05
2018-01-03T19:58:33.301Z,98902.12
2018-01-03T20:01:02.441Z,98895.44
2018-01-03T20:03:31.736Z,98897.29
2018-01-03T20:06:01.172Z,98902.11
2018-01-03T20:08:30.289Z,98889.36
2018-01-03T20:10:59.919Z,98899.11
2018-01-03T20:13:28.948Z,98908.43
2018-01-03T20:15:58.586Z,98906.90
2018-01-03T20:18:28.250Z,98906.97
2018-01-03T20:20:57.561Z,98912.63
2018-01-03T20:23:26.640Z,98924.41
2018-01-03T20:25:55.768Z,98923.56
2018-01-03T20:28:24.301Z,98925.05
2018-01-03T20:30:53.285Z,98923.41
2018-01-03T20:33:22.185Z,98929.02
2018-01-03T20:35:51.706Z,98923.79
2018-01-03T20:38:22.516Z,98922.47
2018-01-03T20:40:51.494Z,98924.34
2018-01-03T20:43:22.591Z,98922.19
2018-01-03T20:45:52.581Z,98924.97
2018-01-03T20:48:22.620Z,98925.84
2018-01-03T20:50:53.517Z,98918.00
2018-01-03T20:53:22.484Z,98929.66
2018-01-03T20:55:52.385Z,98921.64
2018-01-03T20:58:23.373Z,98929.78
2018-01-03T21:00:52.702Z,98920.16
2018-01-03T21:03:22.577Z,98924.14
2018-01-03T21:05:51.452Z,98926.66
2018-01-03T21:08:20.451Z,98930.19
2018-01-03T21:10:51.247Z,98934.69
2018-01-03T21:13:20.337Z,98935.87
2018-01-03T21:15:49.802Z,98928.77
2018-01-03T21:18:17.998Z,98936.00
2018-01-03T21:20:52.645Z,98932.23
2018-01-03T21:23:21.648Z,98930.30
2018-01-03T21:25:51.768Z,98927.80
2018-01-03T21:28:21.683Z,98941.70
2018-01-03T21:30:50.511Z,98939.94
2018-01-03T21:33:19.133Z,98944.22
2018-01-03T21:35:48.504Z,98932.41
2018-01-03T21:38:18.160Z,98938.33
2018-01-03T21:40:47.722Z,98950.06
2018-01-03T21:43:16.171Z,98948.17
2018-01-03T21:45:45.059Z,98940.23
2018-01-03T21:48:14.051Z,98935.86
2018-01-03T21:50:41.176Z,98953.78
2018-01-03T21:53:08.084Z,98960.18
2018-01-03T21:55:35.744Z,98952.43
2018-01-03T21:58:02.837Z,98964.07
2018-01-03T22:00:30.498Z,98975.50
2018-01-03T22:02:57.498Z,98985.25
2018-01-03T22:05:24.369Z,98958.76
2018-01-03T22:07:51.369Z,98961.49
2018-01-03T22:10:18.244Z,98948.30
2018-01-03T22:12:45.215Z,98950.95
2018-01-03T22:15:12.965Z,98951.14
2018-01-03T22:17:39.860Z,98931.22
2018-01-03T22:20:07.528Z,98952.88
2018-01-03T22:22:34.608Z,98966.33
2018-01-03T22:25:01.443Z,98952.52
2018-01-03T22:27:28.321Z,98958.74
2018-01-03T22:29:55.177Z,98955.27
2018-01-03T22:32:22.012Z,98964.64
2018-01-03T22:34:49.004Z,98965.88
2018-01-03T22:37:15.845Z,98967.16
2018-01-03T22:39:42.724Z,98965.48
2018-01-03T22:42:09.607Z,98962.22
2018-01-03T22:44:37.259Z,98956.55
2018-01-03T22:47:04.133Z,98962.69
2018-01-03T22:49:31.701Z,98969.05
2018-01-03T22:51:58.572Z,98974.10
2018-01-03T22:54:26.019Z,98978.93
2018-01-03T22:56:52.866Z,98983.09
2018-01-03T22:59:19.785Z,98974.31
2018-01-03T23:01:47.436Z,98981.59
2018-01-03T23:04:14.375Z,98981.70
2018-01-03T23:06:41.258Z,98977.30
2018-01-03T23:09:08.139Z,98979.14
2018-01-03T23:11:34.981Z,98984.89
2018-01-03T23:14:01.944Z,98981.98
2018-01-03T23:16:28.870Z,98988.78
2018-01-03T23:18:55.853Z,98999.80
2018-01-03T23:21:22.852Z,98989.72
2018-01-03T23:23:49.815Z,98994.19
2018-01-03T23:26:16.754Z,98980.77
2018-01-03T23:28:43.722Z,98991.05
2018-01-03T23:31:10.700Z,98987.62
2018-01-03T23:33:37.819Z,98983.14
2018-01-03T23:36:04.868Z,98995.52
2018-01-03T23:38:31.871Z,98997.19
2018-01-03T23:40:58.761Z,98993.61
2018-01-03T23:43:25.635Z,98995.40
2018-01-03T23:45:52.558Z,98992.59
2018-01-03T23:48:19.498Z,98988.14
2018-01-03T23:50:46.538Z,98998.59
2018-01-03T23:53:14.150Z,98994.48
2018-01-03T23:55:41.090Z,98995.27
2018-01-03T23:58:07.982Z,98995.46
